sensor_id;sensor_type;location;lat;lon;timestamp;P1;durP1;ratioP1;P2;durP2;ratioP2
72557;SDS011;60583;50.094;8.748;2023-05-09T00:02:06;16.83;;;11.88;;
72557;SDS011;60583;50.094;8.748;2023-05-09T00:04:32;20.35;;;13.73;;
72557;SDS011;60583;50.094;8.748;2023-05-09T00:06:58;20.20;;;13.75;;
72557;SDS011;60583;50.094;8.748;2023-05-09T00:09:23;19.63;;;13.57;;
72557;SDS011;60583;50.094;8.748;2023-05-09T00:11:49;20.42;;;13.55;;
72557;SDS011;60583;50.094;8.748;2023-05-09T00:14:14;18.70;;;13.02;;
72557;SDS011;60583;50.094;8.748;2023-05-09T00:16:42;19.48;;;13.85;;
72557;SDS011;60583;50.094;8.748;2023-05-09T00:19:10;19.10;;;13.30;;
72557;SDS011;60583;50.094;8.748;2023-05-09T00:21:37;18.80;;;13.52;;
72557;SDS011;60583;50.094;8.748;2023-05-09T00:24:03;21.08;;;13.80;;
72557;SDS011;60583;50.094;8.748;2023-05-09T00:26:28;19.13;;;13.40;;
72557;SDS011;60583;50.094;8.748;2023-05-09T00:28:54;21.05;;;13.70;;
72557;SDS011;60583;50.094;8.748;2023-05-09T00:31:19;20.60;;;13.73;;
72557;SDS011;60583;50.094;8.748;2023-05-09T00:33:45;22.35;;;14.07;;
72557;SDS011;60583;50.094;8.748;2023-05-09T00:36:10;21.23;;;14.25;;
72557;SDS011;60583;50.094;8.748;2023-05-09T00:38:36;20.23;;;14.18;;
72557;SDS011;60583;50.094;8.748;2023-05-09T00:41:01;20.30;;;13.70;;
72557;SDS011;60583;50.094;8.748;2023-05-09T00:43:26;18.73;;;13.32;;
72557;SDS011;60583;50.094;8.748;2023-05-09T00:45:52;20.48;;;14.48;;
72557;SDS011;60583;50.094;8.748;2023-05-09T00:48:17;21.23;;;14.50;;
72557;SDS011;60583;50.094;8.748;2023-05-09T00:50:43;19.90;;;14.38;;
72557;SDS011;60583;50.094;8.748;2023-05-09T00:53:09;22.25;;;14.68;;
72557;SDS011;60583;50.094;8.748;2023-05-09T00:55:34;21.02;;;13.90;;
72557;SDS011;60583;50.094;8.748;2023-05-09T00:58:00;21.33;;;14.13;;
72557;SDS011;60583;50.094;8.748;2023-05-09T01:00:27;20.88;;;14.65;;
72557;SDS011;60583;50.094;8.748;2023-05-09T01:02:52;20.42;;;14.35;;
72557;SDS011;60583;50.094;8.748;2023-05-09T01:05:19;19.70;;;13.38;;
72557;SDS011;60583;50.094;8.748;2023-05-09T01:08:04;21.92;;;15.05;;
72557;SDS011;60583;50.094;8.748;2023-05-09T01:13:33;21.73;;;14.23;;
72557;SDS011;60583;50.094;8.748;2023-05-09T01:16:06;21.17;;;13.93;;
72557;SDS011;60583;50.094;8.748;2023-05-09T01:18:42;21.75;;;14.40;;
72557;SDS011;60583;50.094;8.748;2023-05-09T01:21:22;20.35;;;13.35;;
72557;SDS011;60583;50.094;8.748;2023-05-09T01:24:11;19.98;;;13.50;;
72557;SDS011;60583;50.094;8.748;2023-05-09T01:29:43;22.23;;;14.75;;
72557;SDS011;60583;50.094;8.748;2023-05-09T01:32:18;21.73;;;14.20;;
72557;SDS011;60583;50.094;8.748;2023-05-09T01:34:48;22.25;;;14.50;;
72557;SDS011;60583;50.094;8.748;2023-05-09T01:37:17;21.40;;;14.35;;
72557;SDS011;60583;50.094;8.748;2023-05-09T01:39:47;19.42;;;14.13;;
72557;SDS011;60583;50.094;8.748;2023-05-09T01:42:16;22.20;;;13.95;;
72557;SDS011;60583;50.094;8.748;2023-05-09T01:44:44;20.23;;;13.38;;
72557;SDS011;60583;50.094;8.748;2023-05-09T01:47:11;19.13;;;13.55;;
72557;SDS011;60583;50.094;8.748;2023-05-09T01:49:40;21.00;;;13.63;;
72557;SDS011;60583;50.094;8.748;2023-05-09T01:52:07;20.88;;;13.43;;
72557;SDS011;60583;50.094;8.748;2023-05-09T01:54:35;18.95;;;12.88;;
72557;SDS011;60583;50.094;8.748;2023-05-09T01:57:03;22.13;;;14.15;;
72557;SDS011;60583;50.094;8.748;2023-05-09T01:59:30;20.10;;;13.38;;
72557;SDS011;60583;50.094;8.748;2023-05-09T02:01:58;21.33;;;14.30;;
72557;SDS011;60583;50.094;8.748;2023-05-09T02:04:24;19.38;;;13.52;;
72557;SDS011;60583;50.094;8.748;2023-05-09T02:06:52;21.38;;;13.80;;
72557;SDS011;60583;50.094;8.748;2023-05-09T02:09:18;20.02;;;14.13;;
72557;SDS011;60583;50.094;8.748;2023-05-09T02:11:44;19.45;;;13.35;;
72557;SDS011;60583;50.094;8.748;2023-05-09T02:14:10;22.88;;;14.38;;
72557;SDS011;60583;50.094;8.748;2023-05-09T02:16:36;20.90;;;14.13;;
72557;SDS011;60583;50.094;8.748;2023-05-09T02:19:03;20.88;;;13.75;;
72557;SDS011;60583;50.094;8.748;2023-05-09T02:21:29;19.90;;;12.80;;
72557;SDS011;60583;50.094;8.748;2023-05-09T02:23:54;19.80;;;13.38;;
72557;SDS011;60583;50.094;8.748;2023-05-09T02:26:20;21.27;;;12.95;;
72557;SDS011;60583;50.094;8.748;2023-05-09T02:28:46;19.17;;;13.43;;
72557;SDS011;60583;50.094;8.748;2023-05-09T02:31:13;21.73;;;14.18;;
72557;SDS011;60583;50.094;8.748;2023-05-09T02:33:43;21.10;;;14.48;;
72557;SDS011;60583;50.094;8.748;2023-05-09T02:36:11;21.13;;;14.38;;
72557;SDS011;60583;50.094;8.748;2023-05-09T02:38:38;20.70;;;13.55;;
72557;SDS011;60583;50.094;8.748;2023-05-09T02:41:05;22.60;;;14.43;;
72557;SDS011;60583;50.094;8.748;2023-05-09T02:43:31;21.40;;;14.18;;
72557;SDS011;60583;50.094;8.748;2023-05-09T02:45:56;20.75;;;14.35;;
72557;SDS011;60583;50.094;8.748;2023-05-09T02:48:22;21.38;;;14.18;;
72557;SDS011;60583;50.094;8.748;2023-05-09T02:50:47;20.27;;;14.48;;
72557;SDS011;60583;50.094;8.748;2023-05-09T02:53:13;19.45;;;14.40;;
72557;SDS011;60583;50.094;8.748;2023-05-09T02:55:38;23.92;;;14.40;;
72557;SDS011;60583;50.094;8.748;2023-05-09T02:58:03;21.85;;;14.68;;
72557;SDS011;60583;50.094;8.748;2023-05-09T03:00:29;23.10;;;14.65;;
72557;SDS011;60583;50.094;8.748;2023-05-09T03:02:54;20.02;;;14.10;;
72557;SDS011;60583;50.094;8.748;2023-05-09T03:05:20;21.88;;;14.70;;
72557;SDS011;60583;50.094;8.748;2023-05-09T03:07:45;23.33;;;14.68;;
72557;SDS011;60583;50.094;8.748;2023-05-09T03:10:11;22.05;;;14.18;;
72557;SDS011;60583;50.094;8.748;2023-05-09T03:12:37;22.90;;;15.00;;
72557;SDS011;60583;50.094;8.748;2023-05-09T03:15:06;22.00;;;14.90;;
72557;SDS011;60583;50.094;8.748;2023-05-09T03:17:31;24.92;;;16.05;;
72557;SDS011;60583;50.094;8.748;2023-05-09T03:19:57;23.65;;;15.85;;
72557;SDS011;60583;50.094;8.748;2023-05-09T03:22:22;23.45;;;15.18;;
72557;SDS011;60583;50.094;8.748;2023-05-09T03:24:48;23.00;;;15.57;;
72557;SDS011;60583;50.094;8.748;2023-05-09T03:27:13;21.73;;;14.48;;
72557;SDS011;60583;50.094;8.748;2023-05-09T03:29:38;22.83;;;14.85;;
72557;SDS011;60583;50.094;8.748;2023-05-09T03:32:04;21.67;;;14.60;;
72557;SDS011;60583;50.094;8.748;2023-05-09T03:34:29;22.42;;;15.23;;
72557;SDS011;60583;50.094;8.748;2023-05-09T03:36:55;23.33;;;14.75;;
72557;SDS011;60583;50.094;8.748;2023-05-09T03:39:20;24.13;;;15.70;;
72557;SDS011;60583;50.094;8.748;2023-05-09T03:41:46;22.35;;;14.48;;
72557;SDS011;60583;50.094;8.748;2023-05-09T03:44:11;22.88;;;14.68;;
72557;SDS011;60583;50.094;8.748;2023-05-09T03:46:36;23.33;;;15.32;;
72557;SDS011;60583;50.094;8.748;2023-05-09T03:49:02;23.23;;;15.55;;
72557;SDS011;60583;50.094;8.748;2023-05-09T03:51:28;26.02;;;16.17;;
72557;SDS011;60583;50.094;8.748;2023-05-09T03:53:54;21.63;;;15.23;;
72557;SDS011;60583;50.094;8.748;2023-05-09T03:56:20;24.38;;;14.85;;
72557;SDS011;60583;50.094;8.748;2023-05-09T03:58:46;23.42;;;15.43;;
72557;SDS011;60583;50.094;8.748;2023-05-09T04:01:12;21.50;;;14.90;;
72557;SDS011;60583;50.094;8.748;2023-05-09T04:03:38;21.35;;;14.60;;
72557;SDS011;60583;50.094;8.748;2023-05-09T04:06:04;22.92;;;15.20;;
72557;SDS011;60583;50.094;8.748;2023-05-09T04:08:30;23.58;;;14.75;;
72557;SDS011;60583;50.094;8.748;2023-05-09T04:10:56;23.40;;;15.80;;
72557;SDS011;60583;50.094;8.748;2023-05-09T04:13:21;22.85;;;15.18;;
72557;SDS011;60583;50.094;8.748;2023-05-09T04:15:47;22.30;;;14.18;;
72557;SDS011;60583;50.094;8.748;2023-05-09T04:18:12;23.67;;;14.80;;
72557;SDS011;60583;50.094;8.748;2023-05-09T04:20:38;23.30;;;14.48;;
72557;SDS011;60583;50.094;8.748;2023-05-09T04:23:03;21.70;;;14.45;;
72557;SDS011;60583;50.094;8.748;2023-05-09T04:25:28;21.35;;;14.60;;
72557;SDS011;60583;50.094;8.748;2023-05-09T04:27:55;22.02;;;14.65;;
72557;SDS011;60583;50.094;8.748;2023-05-09T04:30:21;21.75;;;14.40;;
72557;SDS011;60583;50.094;8.748;2023-05-09T04:32:46;23.40;;;14.98;;
72557;SDS011;60583;50.094;8.748;2023-05-09T04:35:13;25.10;;;15.80;;
72557;SDS011;60583;50.094;8.748;2023-05-09T04:37:38;23.20;;;15.23;;
72557;SDS011;60583;50.094;8.748;2023-05-09T04:40:04;23.92;;;15.60;;
72557;SDS011;60583;50.094;8.748;2023-05-09T04:42:31;24.40;;;16.85;;
72557;SDS011;60583;50.094;8.748;2023-05-09T04:44:57;25.05;;;16.15;;
72557;SDS011;60583;50.094;8.748;2023-05-09T04:47:23;23.92;;;15.90;;
72557;SDS011;60583;50.094;8.748;2023-05-09T04:49:48;23.17;;;15.85;;
72557;SDS011;60583;50.094;8.748;2023-05-09T04:52:14;27.33;;;16.83;;
72557;SDS011;60583;50.094;8.748;2023-05-09T04:54:39;24.48;;;16.00;;
72557;SDS011;60583;50.094;8.748;2023-05-09T04:57:05;20.75;;;14.48;;
72557;SDS011;60583;50.094;8.748;2023-05-09T04:59:31;23.73;;;15.18;;
72557;SDS011;60583;50.094;8.748;2023-05-09T05:01:56;23.90;;;15.77;;
72557;SDS011;60583;50.094;8.748;2023-05-09T05:04:22;24.30;;;16.73;;
72557;SDS011;60583;50.094;8.748;2023-05-09T05:06:47;21.83;;;14.23;;
72557;SDS011;60583;50.094;8.748;2023-05-09T05:09:14;21.88;;;15.15;;
72557;SDS011;60583;50.094;8.748;2023-05-09T05:11:39;24.20;;;15.77;;
72557;SDS011;60583;50.094;8.748;2023-05-09T05:14:04;21.75;;;15.05;;
72557;SDS011;60583;50.094;8.748;2023-05-09T05:16:30;22.98;;;15.80;;
72557;SDS011;60583;50.094;8.748;2023-05-09T05:18:55;23.13;;;15.15;;
72557;SDS011;60583;50.094;8.748;2023-05-09T05:21:21;23.52;;;16.52;;
72557;SDS011;60583;50.094;8.748;2023-05-09T05:23:46;20.55;;;13.65;;
72557;SDS011;60583;50.094;8.748;2023-05-09T05:26:11;21.25;;;14.02;;
72557;SDS011;60583;50.094;8.748;2023-05-09T05:28:37;21.27;;;14.65;;
72557;SDS011;60583;50.094;8.748;2023-05-09T05:31:02;22.40;;;14.75;;
72557;SDS011;60583;50.094;8.748;2023-05-09T05:33:28;21.33;;;14.52;;
72557;SDS011;60583;50.094;8.748;2023-05-09T05:35:53;22.20;;;14.35;;
72557;SDS011;60583;50.094;8.748;2023-05-09T05:38:19;24.40;;;15.32;;
72557;SDS011;60583;50.094;8.748;2023-05-09T05:40:44;22.95;;;15.00;;
72557;SDS011;60583;50.094;8.748;2023-05-09T05:43:09;20.33;;;14.57;;
72557;SDS011;60583;50.094;8.748;2023-05-09T05:45:35;19.77;;;13.43;;
72557;SDS011;60583;50.094;8.748;2023-05-09T05:48:00;19.73;;;13.68;;
72557;SDS011;60583;50.094;8.748;2023-05-09T05:50:26;21.17;;;14.13;;
72557;SDS011;60583;50.094;8.748;2023-05-09T05:52:52;20.50;;;13.25;;
72557;SDS011;60583;50.094;8.748;2023-05-09T05:55:18;20.98;;;13.88;;
72557;SDS011;60583;50.094;8.748;2023-05-09T05:57:43;23.05;;;14.68;;
72557;SDS011;60583;50.094;8.748;2023-05-09T06:00:09;19.90;;;13.95;;
72557;SDS011;60583;50.094;8.748;2023-05-09T06:02:35;20.95;;;13.90;;
72557;SDS011;60583;50.094;8.748;2023-05-09T06:05:01;22.77;;;14.52;;
72557;SDS011;60583;50.094;8.748;2023-05-09T06:07:27;20.00;;;13.75;;
72557;SDS011;60583;50.094;8.748;2023-05-09T06:09:53;20.65;;;14.70;;
72557;SDS011;60583;50.094;8.748;2023-05-09T06:12:18;22.05;;;14.48;;
72557;SDS011;60583;50.094;8.748;2023-05-09T06:14:44;20.45;;;14.45;;
72557;SDS011;60583;50.094;8.748;2023-05-09T06:17:09;20.17;;;13.88;;
72557;SDS011;60583;50.094;8.748;2023-05-09T06:19:35;18.30;;;13.02;;
72557;SDS011;60583;50.094;8.748;2023-05-09T06:22:01;18.65;;;13.18;;
72557;SDS011;60583;50.094;8.748;2023-05-09T06:24:27;19.00;;;13.55;;
72557;SDS011;60583;50.094;8.748;2023-05-09T06:26:52;19.35;;;12.98;;
72557;SDS011;60583;50.094;8.748;2023-05-09T06:29:18;20.40;;;13.10;;
72557;SDS011;60583;50.094;8.748;2023-05-09T06:31:43;17.85;;;12.98;;
72557;SDS011;60583;50.094;8.748;2023-05-09T06:34:08;18.25;;;12.52;;
72557;SDS011;60583;50.094;8.748;2023-05-09T06:36:34;17.58;;;12.77;;
72557;SDS011;60583;50.094;8.748;2023-05-09T06:38:59;17.88;;;12.55;;
72557;SDS011;60583;50.094;8.748;2023-05-09T06:41:25;17.27;;;12.43;;
72557;SDS011;60583;50.094;8.748;2023-05-09T06:43:50;18.38;;;12.68;;
72557;SDS011;60583;50.094;8.748;2023-05-09T06:46:16;17.65;;;12.20;;
72557;SDS011;60583;50.094;8.748;2023-05-09T06:48:42;16.60;;;12.63;;
72557;SDS011;60583;50.094;8.748;2023-05-09T06:51:07;18.90;;;12.50;;
72557;SDS011;60583;50.094;8.748;2023-05-09T06:53:33;16.63;;;12.70;;
72557;SDS011;60583;50.094;8.748;2023-05-09T06:55:58;19.23;;;13.02;;
72557;SDS011;60583;50.094;8.748;2023-05-09T06:58:24;18.30;;;11.90;;
72557;SDS011;60583;50.094;8.748;2023-05-09T07:00:51;18.70;;;12.85;;
72557;SDS011;60583;50.094;8.748;2023-05-09T07:03:17;19.13;;;12.48;;
72557;SDS011;60583;50.094;8.748;2023-05-09T07:05:42;19.00;;;12.82;;
72557;SDS011;60583;50.094;8.748;2023-05-09T07:08:07;17.88;;;12.95;;
72557;SDS011;60583;50.094;8.748;2023-05-09T07:10:33;16.38;;;11.73;;
72557;SDS011;60583;50.094;8.748;2023-05-09T07:12:58;17.58;;;12.32;;
72557;SDS011;60583;50.094;8.748;2023-05-09T07:15:24;16.92;;;12.65;;
72557;SDS011;60583;50.094;8.748;2023-05-09T07:17:49;16.73;;;11.50;;
72557;SDS011;60583;50.094;8.748;2023-05-09T07:20:14;17.45;;;12.02;;
72557;SDS011;60583;50.094;8.748;2023-05-09T07:22:40;16.58;;;11.75;;
72557;SDS011;60583;50.094;8.748;2023-05-09T07:25:06;16.30;;;12.73;;
72557;SDS011;60583;50.094;8.748;2023-05-09T07:27:32;17.35;;;12.52;;
72557;SDS011;60583;50.094;8.748;2023-05-09T07:29:58;16.90;;;11.98;;
72557;SDS011;60583;50.094;8.748;2023-05-09T07:32:23;16.92;;;12.30;;
72557;SDS011;60583;50.094;8.748;2023-05-09T07:34:49;17.98;;;12.35;;
72557;SDS011;60583;50.094;8.748;2023-05-09T07:37:14;16.88;;;11.82;;
72557;SDS011;60583;50.094;8.748;2023-05-09T07:39:39;17.10;;;12.00;;
72557;SDS011;60583;50.094;8.748;2023-05-09T07:42:05;25.80;;;14.70;;
72557;SDS011;60583;50.094;8.748;2023-05-09T07:44:32;18.27;;;12.05;;
72557;SDS011;60583;50.094;8.748;2023-05-09T07:46:57;17.30;;;12.23;;
72557;SDS011;60583;50.094;8.748;2023-05-09T07:49:26;17.92;;;12.15;;
72557;SDS011;60583;50.094;8.748;2023-05-09T07:51:52;26.85;;;12.15;;
72557;SDS011;60583;50.094;8.748;2023-05-09T07:54:17;15.85;;;12.02;;
72557;SDS011;60583;50.094;8.748;2023-05-09T07:56:42;17.50;;;12.18;;
72557;SDS011;60583;50.094;8.748;2023-05-09T07:59:08;32.08;;;15.55;;
72557;SDS011;60583;50.094;8.748;2023-05-09T08:01:33;17.60;;;11.70;;
72557;SDS011;60583;50.094;8.748;2023-05-09T08:03:58;16.67;;;12.00;;
72557;SDS011;60583;50.094;8.748;2023-05-09T08:06:24;14.93;;;11.40;;
72557;SDS011;60583;50.094;8.748;2023-05-09T08:08:50;24.00;;;14.25;;
72557;SDS011;60583;50.094;8.748;2023-05-09T08:11:16;16.77;;;12.32;;
72557;SDS011;60583;50.094;8.748;2023-05-09T08:13:41;18.70;;;13.70;;
72557;SDS011;60583;50.094;8.748;2023-05-09T08:16:06;17.80;;;12.43;;
72557;SDS011;60583;50.094;8.748;2023-05-09T08:18:32;16.60;;;12.13;;
72557;SDS011;60583;50.094;8.748;2023-05-09T08:20:57;16.38;;;11.88;;
72557;SDS011;60583;50.094;8.748;2023-05-09T08:23:24;16.30;;;11.63;;
72557;SDS011;60583;50.094;8.748;2023-05-09T08:25:52;17.92;;;11.65;;
72557;SDS011;60583;50.094;8.748;2023-05-09T08:28:18;18.50;;;12.32;;
72557;SDS011;60583;50.094;8.748;2023-05-09T08:30:46;18.08;;;12.45;;
72557;SDS011;60583;50.094;8.748;2023-05-09T08:33:11;17.88;;;11.75;;
72557;SDS011;60583;50.094;8.748;2023-05-09T08:35:37;20.00;;;13.32;;
72557;SDS011;60583;50.094;8.748;2023-05-09T08:38:02;17.45;;;11.88;;
72557;SDS011;60583;50.094;8.748;2023-05-09T08:40:28;17.85;;;12.13;;
72557;SDS011;60583;50.094;8.748;2023-05-09T08:43:05;18.95;;;12.57;;
72557;SDS011;60583;50.094;8.748;2023-05-09T08:45:32;16.55;;;11.98;;
72557;SDS011;60583;50.094;8.748;2023-05-09T08:48:11;18.92;;;12.15;;
72557;SDS011;60583;50.094;8.748;2023-05-09T08:50:39;15.80;;;11.23;;
72557;SDS011;60583;50.094;8.748;2023-05-09T08:53:05;17.40;;;12.35;;
72557;SDS011;60583;50.094;8.748;2023-05-09T08:55:30;16.75;;;11.75;;
72557;SDS011;60583;50.094;8.748;2023-05-09T08:57:56;17.00;;;12.20;;
72557;SDS011;60583;50.094;8.748;2023-05-09T09:00:22;17.25;;;12.20;;
72557;SDS011;60583;50.094;8.748;2023-05-09T09:02:47;16.85;;;11.90;;
72557;SDS011;60583;50.094;8.748;2023-05-09T09:05:13;16.95;;;12.05;;
72557;SDS011;60583;50.094;8.748;2023-05-09T09:07:38;16.90;;;12.35;;
72557;SDS011;60583;50.094;8.748;2023-05-09T09:10:04;17.65;;;11.48;;
72557;SDS011;60583;50.094;8.748;2023-05-09T09:12:32;19.23;;;12.45;;
72557;SDS011;60583;50.094;8.748;2023-05-09T09:15:02;16.15;;;11.95;;
72557;SDS011;60583;50.094;8.748;2023-05-09T09:17:29;16.58;;;12.30;;
72557;SDS011;60583;50.094;8.748;2023-05-09T09:19:57;16.38;;;11.60;;
72557;SDS011;60583;50.094;8.748;2023-05-09T09:22:26;17.48;;;11.05;;
72557;SDS011;60583;50.094;8.748;2023-05-09T09:24:58;17.52;;;12.10;;
72557;SDS011;60583;50.094;8.748;2023-05-09T09:27:25;16.67;;;11.15;;
72557;SDS011;60583;50.094;8.748;2023-05-09T09:29:51;17.65;;;11.57;;
72557;SDS011;60583;50.094;8.748;2023-05-09T09:32:16;18.20;;;12.38;;
72557;SDS011;60583;50.094;8.748;2023-05-09T09:34:43;15.25;;;10.85;;
72557;SDS011;60583;50.094;8.748;2023-05-09T09:37:28;15.80;;;10.63;;
72557;SDS011;60583;50.094;8.748;2023-05-09T09:39:54;17.88;;;11.10;;
72557;SDS011;60583;50.094;8.748;2023-05-09T09:42:20;17.15;;;11.23;;
72557;SDS011;60583;50.094;8.748;2023-05-09T09:45:07;16.13;;;10.82;;
72557;SDS011;60583;50.094;8.748;2023-05-09T09:47:33;15.73;;;10.73;;
72557;SDS011;60583;50.094;8.748;2023-05-09T09:50:03;16.45;;;11.20;;
72557;SDS011;60583;50.094;8.748;2023-05-09T09:52:40;15.77;;;10.32;;
72557;SDS011;60583;50.094;8.748;2023-05-09T09:57:38;15.10;;;10.75;;
72557;SDS011;60583;50.094;8.748;2023-05-09T10:00:06;15.43;;;10.48;;
72557;SDS011;60583;50.094;8.748;2023-05-09T10:02:32;15.00;;;10.57;;
72557;SDS011;60583;50.094;8.748;2023-05-09T10:05:06;16.02;;;11.40;;
72557;SDS011;60583;50.094;8.748;2023-05-09T10:07:32;14.57;;;10.25;;
72557;SDS011;60583;50.094;8.748;2023-05-09T10:09:59;14.90;;;10.65;;
72557;SDS011;60583;50.094;8.748;2023-05-09T10:12:30;15.70;;;10.68;;
72557;SDS011;60583;50.094;8.748;2023-05-09T10:15:01;15.65;;;11.18;;
72557;SDS011;60583;50.094;8.748;2023-05-09T10:17:28;15.07;;;10.82;;
72557;SDS011;60583;50.094;8.748;2023-05-09T10:19:55;13.40;;;10.00;;
72557;SDS011;60583;50.094;8.748;2023-05-09T10:22:21;14.95;;;9.98;;
72557;SDS011;60583;50.094;8.748;2023-05-09T10:27:38;15.68;;;10.50;;
72557;SDS011;60583;50.094;8.748;2023-05-09T10:30:06;13.13;;;10.02;;
72557;SDS011;60583;50.094;8.748;2023-05-09T10:32:37;14.60;;;10.65;;
72557;SDS011;60583;50.094;8.748;2023-05-09T10:35:11;13.60;;;9.50;;
72557;SDS011;60583;50.094;8.748;2023-05-09T10:37:38;19.38;;;13.75;;
72557;SDS011;60583;50.094;8.748;2023-05-09T10:40:04;14.90;;;10.93;;
72557;SDS011;60583;50.094;8.748;2023-05-09T10:42:30;15.07;;;10.88;;
72557;SDS011;60583;50.094;8.748;2023-05-09T10:44:56;16.10;;;11.25;;
72557;SDS011;60583;50.094;8.748;2023-05-09T10:47:22;15.20;;;10.65;;
72557;SDS011;60583;50.094;8.748;2023-05-09T10:49:51;12.95;;;10.10;;
72557;SDS011;60583;50.094;8.748;2023-05-09T10:52:17;15.65;;;10.10;;
72557;SDS011;60583;50.094;8.748;2023-05-09T10:54:45;14.90;;;10.38;;
72557;SDS011;60583;50.094;8.748;2023-05-09T10:57:26;13.73;;;10.32;;
72557;SDS011;60583;50.094;8.748;2023-05-09T10:59:53;14.63;;;11.05;;
72557;SDS011;60583;50.094;8.748;2023-05-09T11:02:19;15.07;;;11.10;;
72557;SDS011;60583;50.094;8.748;2023-05-09T11:04:45;16.48;;;11.15;;
72557;SDS011;60583;50.094;8.748;2023-05-09T11:07:24;16.60;;;11.57;;
72557;SDS011;60583;50.094;8.748;2023-05-09T11:13:06;15.95;;;11.38;;
72557;SDS011;60583;50.094;8.748;2023-05-09T11:15:33;17.15;;;11.63;;
72557;SDS011;60583;50.094;8.748;2023-05-09T11:18:10;17.35;;;11.18;;
72557;SDS011;60583;50.094;8.748;2023-05-09T11:20:42;17.83;;;11.90;;
72557;SDS011;60583;50.094;8.748;2023-05-09T11:23:09;17.27;;;11.73;;
72557;SDS011;60583;50.094;8.748;2023-05-09T11:25:36;17.95;;;11.52;;
72557;SDS011;60583;50.094;8.748;2023-05-09T11:28:03;15.23;;;10.43;;
72557;SDS011;60583;50.094;8.748;2023-05-09T11:30:34;18.48;;;12.02;;
72557;SDS011;60583;50.094;8.748;2023-05-09T11:33:03;16.88;;;11.35;;
72557;SDS011;60583;50.094;8.748;2023-05-09T11:35:30;17.30;;;11.65;;
72557;SDS011;60583;50.094;8.748;2023-05-09T11:38:04;15.32;;;11.75;;
72557;SDS011;60583;50.094;8.748;2023-05-09T11:40:32;15.32;;;11.65;;
72557;SDS011;60583;50.094;8.748;2023-05-09T11:42:58;15.25;;;10.68;;
72557;SDS011;60583;50.094;8.748;2023-05-09T11:45:26;15.55;;;10.52;;
72557;SDS011;60583;50.094;8.748;2023-05-09T11:47:54;16.63;;;10.98;;
72557;SDS011;60583;50.094;8.748;2023-05-09T11:50:21;13.80;;;10.05;;
72557;SDS011;60583;50.094;8.748;2023-05-09T11:52:47;15.60;;;10.48;;
72557;SDS011;60583;50.094;8.748;2023-05-09T11:55:13;13.57;;;9.70;;
72557;SDS011;60583;50.094;8.748;2023-05-09T12:00:10;14.60;;;10.02;;
72557;SDS011;60583;50.094;8.748;2023-05-09T12:02:37;13.05;;;8.95;;
72557;SDS011;60583;50.094;8.748;2023-05-09T12:05:06;11.98;;;8.68;;
72557;SDS011;60583;50.094;8.748;2023-05-09T12:10:05;8.73;;;6.78;;
72557;SDS011;60583;50.094;8.748;2023-05-09T12:12:33;9.15;;;5.40;;
72557;SDS011;60583;50.094;8.748;2023-05-09T12:15:03;7.63;;;5.28;;
72557;SDS011;60583;50.094;8.748;2023-05-09T12:21:13;6.85;;;5.22;;
72557;SDS011;60583;50.094;8.748;2023-05-09T12:23:38;6.28;;;4.72;;
72557;SDS011;60583;50.094;8.748;2023-05-09T12:26:04;8.27;;;4.80;;
72557;SDS011;60583;50.094;8.748;2023-05-09T12:28:30;7.65;;;5.20;;
72557;SDS011;60583;50.094;8.748;2023-05-09T12:30:55;6.35;;;4.28;;
72557;SDS011;60583;50.094;8.748;2023-05-09T12:33:21;7.68;;;5.10;;
72557;SDS011;60583;50.094;8.748;2023-05-09T12:35:48;6.88;;;5.15;;
72557;SDS011;60583;50.094;8.748;2023-05-09T12:38:27;7.32;;;4.90;;
72557;SDS011;60583;50.094;8.748;2023-05-09T12:41:02;6.68;;;5.00;;
72557;SDS011;60583;50.094;8.748;2023-05-09T12:43:33;7.15;;;5.40;;
72557;SDS011;60583;50.094;8.748;2023-05-09T12:46:03;6.55;;;5.03;;
72557;SDS011;60583;50.094;8.748;2023-05-09T12:48:35;7.95;;;4.88;;
72557;SDS011;60583;50.094;8.748;2023-05-09T12:51:02;6.43;;;4.90;;
72557;SDS011;60583;50.094;8.748;2023-05-09T12:53:35;8.77;;;5.05;;
72557;SDS011;60583;50.094;8.748;2023-05-09T12:56:03;7.72;;;5.03;;
72557;SDS011;60583;50.094;8.748;2023-05-09T12:58:32;8.35;;;5.80;;
72557;SDS011;60583;50.094;8.748;2023-05-09T13:00:58;9.15;;;6.50;;
72557;SDS011;60583;50.094;8.748;2023-05-09T13:03:27;8.90;;;5.93;;
72557;SDS011;60583;50.094;8.748;2023-05-09T13:05:56;8.65;;;6.18;;
72557;SDS011;60583;50.094;8.748;2023-05-09T13:08:22;9.32;;;6.00;;
72557;SDS011;60583;50.094;8.748;2023-05-09T13:10:48;6.75;;;5.35;;
72557;SDS011;60583;50.094;8.748;2023-05-09T13:13:14;9.13;;;6.65;;
72557;SDS011;60583;50.094;8.748;2023-05-09T13:15:40;8.00;;;6.25;;
72557;SDS011;60583;50.094;8.748;2023-05-09T13:18:06;9.35;;;6.32;;
72557;SDS011;60583;50.094;8.748;2023-05-09T13:20:32;8.23;;;6.03;;
72557;SDS011;60583;50.094;8.748;2023-05-09T13:22:57;9.77;;;6.05;;
72557;SDS011;60583;50.094;8.748;2023-05-09T13:25:23;7.43;;;5.90;;
72557;SDS011;60583;50.094;8.748;2023-05-09T13:27:48;14.07;;;8.98;;
72557;SDS011;60583;50.094;8.748;2023-05-09T13:30:14;11.93;;;8.73;;
72557;SDS011;60583;50.094;8.748;2023-05-09T13:32:39;13.60;;;8.82;;
72557;SDS011;60583;50.094;8.748;2023-05-09T13:35:05;10.65;;;8.32;;
72557;SDS011;60583;50.094;8.748;2023-05-09T13:37:32;13.38;;;9.50;;
72557;SDS011;60583;50.094;8.748;2023-05-09T13:39:58;14.98;;;9.07;;
72557;SDS011;60583;50.094;8.748;2023-05-09T13:42:23;12.82;;;9.25;;
72557;SDS011;60583;50.094;8.748;2023-05-09T13:44:49;13.05;;;8.85;;
72557;SDS011;60583;50.094;8.748;2023-05-09T13:47:14;15.52;;;9.02;;
72557;SDS011;60583;50.094;8.748;2023-05-09T13:49:39;13.45;;;9.18;;
72557;SDS011;60583;50.094;8.748;2023-05-09T13:52:05;14.23;;;9.27;;
72557;SDS011;60583;50.094;8.748;2023-05-09T13:54:31;12.57;;;8.98;;
72557;SDS011;60583;50.094;8.748;2023-05-09T13:57:00;12.48;;;8.48;;
72557;SDS011;60583;50.094;8.748;2023-05-09T13:59:31;14.45;;;9.02;;
72557;SDS011;60583;50.094;8.748;2023-05-09T14:01:57;11.93;;;8.18;;
72557;SDS011;60583;50.094;8.748;2023-05-09T14:04:24;12.02;;;8.95;;
72557;SDS011;60583;50.094;8.748;2023-05-09T14:06:50;13.05;;;8.63;;
72557;SDS011;60583;50.094;8.748;2023-05-09T14:09:16;12.07;;;8.63;;
72557;SDS011;60583;50.094;8.748;2023-05-09T14:11:42;12.82;;;8.27;;
72557;SDS011;60583;50.094;8.748;2023-05-09T14:14:07;13.27;;;9.18;;
72557;SDS011;60583;50.094;8.748;2023-05-09T14:16:32;12.40;;;8.73;;
72557;SDS011;60583;50.094;8.748;2023-05-09T14:18:58;13.40;;;9.35;;
72557;SDS011;60583;50.094;8.748;2023-05-09T14:21:23;11.75;;;8.45;;
72557;SDS011;60583;50.094;8.748;2023-05-09T14:23:49;12.10;;;8.82;;
72557;SDS011;60583;50.094;8.748;2023-05-09T14:26:15;12.73;;;8.25;;
72557;SDS011;60583;50.094;8.748;2023-05-09T14:28:41;14.40;;;8.68;;
72557;SDS011;60583;50.094;8.748;2023-05-09T14:31:06;13.80;;;9.32;;
72557;SDS011;60583;50.094;8.748;2023-05-09T14:33:32;13.05;;;8.65;;
72557;SDS011;60583;50.094;8.748;2023-05-09T14:35:58;11.65;;;8.60;;
72557;SDS011;60583;50.094;8.748;2023-05-09T14:38:26;12.07;;;9.05;;
72557;SDS011;60583;50.094;8.748;2023-05-09T14:40:52;16.05;;;9.77;;
72557;SDS011;60583;50.094;8.748;2023-05-09T14:43:17;12.02;;;9.48;;
72557;SDS011;60583;50.094;8.748;2023-05-09T14:45:43;11.98;;;8.85;;
72557;SDS011;60583;50.094;8.748;2023-05-09T14:48:08;15.23;;;10.05;;